sensor_id;sensor_type;location;lat;lon;timestamp;temperature;humidity
8178;DHT22;4130;48.740;9.132;2023-06-22T00:00:39;19.10;99.90
8178;DHT22;4130;48.740;9.132;2023-06-22T00:03:07;19.00;99.90
8178;DHT22;4130;48.740;9.132;2023-06-22T00:05:34;19.00;99.90
8178;DHT22;4130;48.740;9.132;2023-06-22T00:08:03;19.00;99.90
8178;DHT22;4130;48.740;9.132;2023-06-22T00:10:30;19.00;99.90
8178;DHT22;4130;48.740;9.132;2023-06-22T00:12:58;18.90;99.90
8178;DHT22;4130;48.740;9.132;2023-06-22T00:15:25;18.80;99.90
8178;DHT22;4130;48.740;9.132;2023-06-22T00:17:51;18.90;99.90
8178;DHT22;4130;48.740;9.132;2023-06-22T00:20:18;18.80;99.90
8178;DHT22;4130;48.740;9.132;2023-06-22T00:22:45;18.80;99.90
8178;DHT22;4130;48.740;9.132;2023-06-22T00:25:13;18.80;99.90
8178;DHT22;4130;48.740;9.132;2023-06-22T00:27:40;18.80;99.90
8178;DHT22;4130;48.740;9.132;2023-06-22T00:30:09;18.80;99.90
8178;DHT22;4130;48.740;9.132;2023-06-22T00:32:36;18.70;99.90
8178;DHT22;4130;48.740;9.132;2023-06-22T00:35:03;18.70;99.90
8178;DHT22;4130;48.740;9.132;2023-06-22T00:37:30;18.70;99.90
8178;DHT22;4130;48.740;9.132;2023-06-22T00:39:57;18.70;99.90
8178;DHT22;4130;48.740;9.132;2023-06-22T00:42:24;18.70;99.90
8178;DHT22;4130;48.740;9.132;2023-06-22T00:44:53;18.70;99.90
8178;DHT22;4130;48.740;9.132;2023-06-22T00:47:21;18.70;99.90
8178;DHT22;4130;48.740;9.132;2023-06-22T00:49:49;18.70;99.90
8178;DHT22;4130;48.740;9.132;2023-06-22T00:52:19;18.70;99.90
8178;DHT22;4130;48.740;9.132;2023-06-22T00:54:47;18.70;99.90
8178;DHT22;4130;48.740;9.132;2023-06-22T00:57:14;18.70;99.90
8178;DHT22;4130;48.740;9.132;2023-06-22T00:59:42;18.60;99.90
8178;DHT22;4130;48.740;9.132;2023-06-22T01:02:09;18.70;99.90
8178;DHT22;4130;48.740;9.132;2023-06-22T01:04:38;18.60;99.90
8178;DHT22;4130;48.740;9.132;2023-06-22T01:07:10;18.60;99.90
8178;DHT22;4130;48.740;9.132;2023-06-22T01:09:45;18.50;99.90
8178;DHT22;4130;48.740;9.132;2023-06-22T01:12:14;18.50;99.90
8178;DHT22;4130;48.740;9.132;2023-06-22T01:14:49;18.50;99.90
8178;DHT22;4130;48.740;9.132;2023-06-22T01:17:19;18.50;99.90
8178;DHT22;4130;48.740;9.132;2023-06-22T01:19:49;18.40;99.90
8178;DHT22;4130;48.740;9.132;2023-06-22T01:22:23;18.40;99.90
8178;DHT22;4130;48.740;9.132;2023-06-22T01:24:57;18.50;99.90
8178;DHT22;4130;48.740;9.132;2023-06-22T01:27:39;18.40;99.90
8178;DHT22;4130;48.740;9.132;2023-06-22T01:30:09;18.40;99.90
8178;DHT22;4130;48.740;9.132;2023-06-22T01:32:38;18.40;99.90
8178;DHT22;4130;48.740;9.132;2023-06-22T01:35:07;18.40;99.90
8178;DHT22;4130;48.740;9.132;2023-06-22T01:37:36;18.40;99.90
8178;DHT22;4130;48.740;9.132;2023-06-22T01:40:05;18.40;99.90
8178;DHT22;4130;48.740;9.132;2023-06-22T01:42:34;18.30;99.90
8178;DHT22;4130;48.740;9.132;2023-06-22T01:45:02;18.30;99.90
8178;DHT22;4130;48.740;9.132;2023-06-22T01:47:30;18.30;99.90
8178;DHT22;4130;48.740;9.132;2023-06-22T01:49:57;18.30;99.90
8178;DHT22;4130;48.740;9.132;2023-06-22T01:52:24;18.30;99.90
8178;DHT22;4130;48.740;9.132;2023-06-22T01:54:51;18.30;99.90
8178;DHT22;4130;48.740;9.132;2023-06-22T01:57:19;18.40;99.90
8178;DHT22;4130;48.740;9.132;2023-06-22T01:59:50;18.30;99.90
8178;DHT22;4130;48.740;9.132;2023-06-22T02:02:20;18.30;99.90
8178;DHT22;4130;48.740;9.132;2023-06-22T02:04:57;18.20;99.90
8178;DHT22;4130;48.740;9.132;2023-06-22T02:07:28;18.20;99.90
8178;DHT22;4130;48.740;9.132;2023-06-22T02:09:58;18.10;99.90
8178;DHT22;4130;48.740;9.132;2023-06-22T02:12:26;18.10;99.90
8178;DHT22;4130;48.740;9.132;2023-06-22T02:14:54;18.00;99.90
8178;DHT22;4130;48.740;9.132;2023-06-22T02:17:21;18.00;99.90
8178;DHT22;4130;48.740;9.132;2023-06-22T02:19:48;18.10;99.90
8178;DHT22;4130;48.740;9.132;2023-06-22T02:22:16;18.00;99.90
8178;DHT22;4130;48.740;9.132;2023-06-22T02:24:43;18.10;99.90
8178;DHT22;4130;48.740;9.132;2023-06-22T02:27:10;18.00;99.90
8178;DHT22;4130;48.740;9.132;2023-06-22T02:29:36;18.00;99.90
8178;DHT22;4130;48.740;9.132;2023-06-22T02:32:03;17.90;99.90
8178;DHT22;4130;48.740;9.132;2023-06-22T02:34:31;17.90;99.90
8178;DHT22;4130;48.740;9.132;2023-06-22T02:36:59;17.90;99.90
8178;DHT22;4130;48.740;9.132;2023-06-22T02:39:27;18.00;99.90
8178;DHT22;4130;48.740;9.132;2023-06-22T02:41:55;17.90;99.90
8178;DHT22;4130;48.740;9.132;2023-06-22T02:44:21;17.80;99.90
8178;DHT22;4130;48.740;9.132;2023-06-22T02:46:49;17.80;99.90
8178;DHT22;4130;48.740;9.132;2023-06-22T02:49:15;17.80;99.90
8178;DHT22;4130;48.740;9.132;2023-06-22T02:51:45;17.80;99.90
8178;DHT22;4130;48.740;9.132;2023-06-22T02:54:12;17.80;99.90
8178;DHT22;4130;48.740;9.132;2023-06-22T02:56:40;17.80;99.90
8178;DHT22;4130;48.740;9.132;2023-06-22T02:59:09;17.70;99.90
8178;DHT22;4130;48.740;9.132;2023-06-22T03:01:36;17.70;99.90
8178;DHT22;4130;48.740;9.132;2023-06-22T03:04:05;17.60;99.90
8178;DHT22;4130;48.740;9.132;2023-06-22T03:06:32;17.60;99.90
8178;DHT22;4130;48.740;9.132;2023-06-22T03:09:00;17.70;99.90
8178;DHT22;4130;48.740;9.132;2023-06-22T03:11:29;17.60;99.90
8178;DHT22;4130;48.740;9.132;2023-06-22T03:13:57;17.60;99.90
8178;DHT22;4130;48.740;9.132;2023-06-22T03:16:24;17.60;99.90
8178;DHT22;4130;48.740;9.132;2023-06-22T03:18:51;17.50;99.90
8178;DHT22;4130;48.740;9.132;2023-06-22T03:21:18;17.50;99.90
8178;DHT22;4130;48.740;9.132;2023-06-22T03:23:45;17.50;99.90
8178;DHT22;4130;48.740;9.132;2023-06-22T03:26:12;17.50;99.90
8178;DHT22;4130;48.740;9.132;2023-06-22T03:28:39;17.50;99.90
8178;DHT22;4130;48.740;9.132;2023-06-22T03:31:07;17.50;99.90
8178;DHT22;4130;48.740;9.132;2023-06-22T03:33:34;17.50;99.90
8178;DHT22;4130;48.740;9.132;2023-06-22T03:36:01;17.50;99.90
8178;DHT22;4130;48.740;9.132;2023-06-22T03:38:28;17.50;99.90
8178;DHT22;4130;48.740;9.132;2023-06-22T03:40:54;17.40;99.90
8178;DHT22;4130;48.740;9.132;2023-06-22T03:43:21;17.40;99.90
8178;DHT22;4130;48.740;9.132;2023-06-22T03:45:48;17.40;99.90
8178;DHT22;4130;48.740;9.132;2023-06-22T03:48:16;17.50;99.90
8178;DHT22;4130;48.740;9.132;2023-06-22T03:50:43;17.50;99.90
8178;DHT22;4130;48.740;9.132;2023-06-22T03:53:10;17.50;99.90
8178;DHT22;4130;48.740;9.132;2023-06-22T03:55:37;17.50;99.90
8178;DHT22;4130;48.740;9.132;2023-06-22T03:58:03;17.50;99.90
8178;DHT22;4130;48.740;9.132;2023-06-22T04:00:31;17.50;99.90
8178;DHT22;4130;48.740;9.132;2023-06-22T04:02:58;17.60;99.90
8178;DHT22;4130;48.740;9.132;2023-06-22T04:05:26;17.70;99.90
8178;DHT22;4130;48.740;9.132;2023-06-22T04:07:52;17.70;99.90
8178;DHT22;4130;48.740;9.132;2023-06-22T04:10:19;17.70;99.90
8178;DHT22;4130;48.740;9.132;2023-06-22T04:12:46;17.60;99.90
8178;DHT22;4130;48.740;9.132;2023-06-22T04:15:13;17.60;99.90
8178;DHT22;4130;48.740;9.132;2023-06-22T04:17:40;17.60;99.90
8178;DHT22;4130;48.740;9.132;2023-06-22T04:20:08;17.60;99.90
8178;DHT22;4130;48.740;9.132;2023-06-22T04:22:36;17.70;99.90
8178;DHT22;4130;48.740;9.132;2023-06-22T04:25:03;17.80;99.90
8178;DHT22;4130;48.740;9.132;2023-06-22T04:27:31;17.80;99.90
8178;DHT22;4130;48.740;9.132;2023-06-22T04:29:57;17.80;99.90
8178;DHT22;4130;48.740;9.132;2023-06-22T04:32:25;17.80;99.90
8178;DHT22;4130;48.740;9.132;2023-06-22T04:34:52;17.90;99.90
8178;DHT22;4130;48.740;9.132;2023-06-22T04:37:19;17.90;99.90
8178;DHT22;4130;48.740;9.132;2023-06-22T04:39:50;17.90;99.90
8178;DHT22;4130;48.740;9.132;2023-06-22T04:42:17;18.00;99.90
8178;DHT22;4130;48.740;9.132;2023-06-22T04:44:44;18.00;99.90
8178;DHT22;4130;48.740;9.132;2023-06-22T04:47:10;18.10;99.90
8178;DHT22;4130;48.740;9.132;2023-06-22T04:49:37;18.10;99.90
8178;DHT22;4130;48.740;9.132;2023-06-22T04:52:07;18.20;99.90
8178;DHT22;4130;48.740;9.132;2023-06-22T04:54:35;18.20;99.90
8178;DHT22;4130;48.740;9.132;2023-06-22T04:57:05;18.30;99.90
8178;DHT22;4130;48.740;9.132;2023-06-22T04:59:35;18.30;99.90
8178;DHT22;4130;48.740;9.132;2023-06-22T05:02:05;18.30;99.90
8178;DHT22;4130;48.740;9.132;2023-06-22T05:04:32;18.50;99.90
8178;DHT22;4130;48.740;9.132;2023-06-22T05:07:01;18.60;99.90
8178;DHT22;4130;48.740;9.132;2023-06-22T05:09:28;18.60;99.90
8178;DHT22;4130;48.740;9.132;2023-06-22T05:11:55;18.70;99.90
8178;DHT22;4130;48.740;9.132;2023-06-22T05:14:24;18.70;99.90
8178;DHT22;4130;48.740;9.132;2023-06-22T05:16:51;18.80;99.90
8178;DHT22;4130;48.740;9.132;2023-06-22T05:19:18;18.90;99.90
8178;DHT22;4130;48.740;9.132;2023-06-22T05:21:45;19.00;99.90
8178;DHT22;4130;48.740;9.132;2023-06-22T05:24:11;19.00;99.90
8178;DHT22;4130;48.740;9.132;2023-06-22T05:26:38;19.10;99.90
8178;DHT22;4130;48.740;9.132;2023-06-22T05:29:05;19.20;99.90
8178;DHT22;4130;48.740;9.132;2023-06-22T05:31:33;19.30;99.90
8178;DHT22;4130;48.740;9.132;2023-06-22T05:34:00;19.40;99.90
8178;DHT22;4130;48.740;9.132;2023-06-22T05:36:27;19.60;99.90
8178;DHT22;4130;48.740;9.132;2023-06-22T05:38:55;19.60;99.90
8178;DHT22;4130;48.740;9.132;2023-06-22T05:41:22;19.80;99.90
8178;DHT22;4130;48.740;9.132;2023-06-22T05:43:49;19.90;99.90
8178;DHT22;4130;48.740;9.132;2023-06-22T05:46:17;20.00;99.90
8178;DHT22;4130;48.740;9.132;2023-06-22T05:48:45;20.10;99.90
8178;DHT22;4130;48.740;9.132;2023-06-22T05:51:12;20.10;99.90
8178;DHT22;4130;48.740;9.132;2023-06-22T05:53:38;20.20;99.90
8178;DHT22;4130;48.740;9.132;2023-06-22T05:56:05;20.30;99.90
8178;DHT22;4130;48.740;9.132;2023-06-22T05:58:32;20.40;99.90
8178;DHT22;4130;48.740;9.132;2023-06-22T06:00:58;20.50;99.90
8178;DHT22;4130;48.740;9.132;2023-06-22T06:03:26;20.40;99.90
8178;DHT22;4130;48.740;9.132;2023-06-22T06:05:55;20.50;99.90
8178;DHT22;4130;48.740;9.132;2023-06-22T06:08:22;20.50;99.90
8178;DHT22;4130;48.740;9.132;2023-06-22T06:10:49;20.40;99.90
8178;DHT22;4130;48.740;9.132;2023-06-22T06:13:18;20.50;99.90
8178;DHT22;4130;48.740;9.132;2023-06-22T06:15:45;20.40;99.90
8178;DHT22;4130;48.740;9.132;2023-06-22T06:18:11;20.40;99.90
8178;DHT22;4130;48.740;9.132;2023-06-22T06:20:38;20.50;99.90
8178;DHT22;4130;48.740;9.132;2023-06-22T06:23:06;20.50;99.90
8178;DHT22;4130;48.740;9.132;2023-06-22T06:25:33;20.70;99.90
8178;DHT22;4130;48.740;9.132;2023-06-22T06:28:00;20.70;99.90
8178;DHT22;4130;48.740;9.132;2023-06-22T06:30:26;20.80;99.90
8178;DHT22;4130;48.740;9.132;2023-06-22T06:32:53;20.90;99.90
8178;DHT22;4130;48.740;9.132;2023-06-22T06:35:21;21.00;99.90
8178;DHT22;4130;48.740;9.132;2023-06-22T06:37:49;21.20;99.90
8178;DHT22;4130;48.740;9.132;2023-06-22T06:40:18;21.20;99.90
8178;DHT22;4130;48.740;9.132;2023-06-22T06:42:46;21.40;99.90
8178;DHT22;4130;48.740;9.132;2023-06-22T06:45:17;21.40;99.90
8178;DHT22;4130;48.740;9.132;2023-06-22T06:47:45;21.60;99.90
8178;DHT22;4130;48.740;9.132;2023-06-22T06:50:12;21.60;99.90
8178;DHT22;4130;48.740;9.132;2023-06-22T06:52:39;21.70;99.90
8178;DHT22;4130;48.740;9.132;2023-06-22T06:55:06;21.80;99.90
8178;DHT22;4130;48.740;9.132;2023-06-22T06:57:37;21.90;99.90
8178;DHT22;4130;48.740;9.132;2023-06-22T07:00:06;22.00;99.90
8178;DHT22;4130;48.740;9.132;2023-06-22T07:02:37;22.10;99.90
8178;DHT22;4130;48.740;9.132;2023-06-22T07:05:05;22.40;99.90
8178;DHT22;4130;48.740;9.132;2023-06-22T07:07:32;22.70;99.90
8178;DHT22;4130;48.740;9.132;2023-06-22T07:09:59;23.10;99.90
8178;DHT22;4130;48.740;9.132;2023-06-22T07:12:25;23.50;99.90
8178;DHT22;4130;48.740;9.132;2023-06-22T07:14:53;23.90;99.90
8178;DHT22;4130;48.740;9.132;2023-06-22T07:17:20;24.20;99.90
8178;DHT22;4130;48.740;9.132;2023-06-22T07:19:47;24.50;99.90
8178;DHT22;4130;48.740;9.132;2023-06-22T07:22:13;24.60;99.90
8178;DHT22;4130;48.740;9.132;2023-06-22T07:24:40;24.90;99.90
8178;DHT22;4130;48.740;9.132;2023-06-22T07:27:07;25.20;99.90
8178;DHT22;4130;48.740;9.132;2023-06-22T07:29:36;25.40;99.90
8178;DHT22;4130;48.740;9.132;2023-06-22T07:32:07;25.50;99.90
8178;DHT22;4130;48.740;9.132;2023-06-22T07:34:34;25.50;99.90
8178;DHT22;4130;48.740;9.132;2023-06-22T07:37:01;25.60;99.90
8178;DHT22;4130;48.740;9.132;2023-06-22T07:39:28;25.70;99.90
8178;DHT22;4130;48.740;9.132;2023-06-22T07:41:54;25.80;99.90
8178;DHT22;4130;48.740;9.132;2023-06-22T07:44:21;26.00;99.90
8178;DHT22;4130;48.740;9.132;2023-06-22T07:46:48;26.10;99.90
8178;DHT22;4130;48.740;9.132;2023-06-22T07:49:17;26.20;99.90
8178;DHT22;4130;48.740;9.132;2023-06-22T07:51:44;26.40;99.90
8178;DHT22;4130;48.740;9.132;2023-06-22T07:54:10;26.30;99.90
8178;DHT22;4130;48.740;9.132;2023-06-22T07:56:37;26.30;99.90
8178;DHT22;4130;48.740;9.132;2023-06-22T07:59:04;26.30;99.90
8178;DHT22;4130;48.740;9.132;2023-06-22T08:01:30;26.50;99.90
8178;DHT22;4130;48.740;9.132;2023-06-22T08:03:57;26.60;99.90
8178;DHT22;4130;48.740;9.132;2023-06-22T08:06:25;26.70;99.90
8178;DHT22;4130;48.740;9.132;2023-06-22T08:08:52;26.80;99.90
8178;DHT22;4130;48.740;9.132;2023-06-22T08:11:20;26.90;99.90
8178;DHT22;4130;48.740;9.132;2023-06-22T08:13:47;26.90;99.90
8178;DHT22;4130;48.740;9.132;2023-06-22T08:16:14;26.90;99.90
8178;DHT22;4130;48.740;9.132;2023-06-22T08:18:41;27.00;99.90
8178;DHT22;4130;48.740;9.132;2023-06-22T08:21:08;27.20;99.90
8178;DHT22;4130;48.740;9.132;2023-06-22T08:23:36;27.20;99.90
8178;DHT22;4130;48.740;9.132;2023-06-22T08:26:02;27.30;99.90
8178;DHT22;4130;48.740;9.132;2023-06-22T08:28:29;27.50;99.90
8178;DHT22;4130;48.740;9.132;2023-06-22T08:30:56;27.50;99.90
8178;DHT22;4130;48.740;9.132;2023-06-22T08:33:23;27.70;99.90
8178;DHT22;4130;48.740;9.132;2023-06-22T08:35:54;27.70;99.90
8178;DHT22;4130;48.740;9.132;2023-06-22T08:38:21;27.90;99.90
8178;DHT22;4130;48.740;9.132;2023-06-22T08:40:49;28.30;99.90
8178;DHT22;4130;48.740;9.132;2023-06-22T08:43:15;28.30;99.90
8178;DHT22;4130;48.740;9.132;2023-06-22T08:45:42;28.30;99.90
8178;DHT22;4130;48.740;9.132;2023-06-22T08:48:09;28.40;99.90
8178;DHT22;4130;48.740;9.132;2023-06-22T08:50:36;28.40;99.70
8178;DHT22;4130;48.740;9.132;2023-06-22T08:53:03;28.40;99.60
8178;DHT22;4130;48.740;9.132;2023-06-22T08:55:29;28.50;99.90
8178;DHT22;4130;48.740;9.132;2023-06-22T08:57:57;28.90;99.20
8178;DHT22;4130;48.740;9.132;2023-06-22T09:00:24;29.20;98.40
8178;DHT22;4130;48.740;9.132;2023-06-22T09:02:51;29.10;98.30
8178;DHT22;4130;48.740;9.132;2023-06-22T09:05:18;28.80;99.20
8178;DHT22;4130;48.740;9.132;2023-06-22T09:07:47;28.60;98.70
8178;DHT22;4130;48.740;9.132;2023-06-22T09:10:14;28.50;99.20
8178;DHT22;4130;48.740;9.132;2023-06-22T09:12:40;28.30;99.00
8178;DHT22;4130;48.740;9.132;2023-06-22T09:15:09;28.30;98.90
8178;DHT22;4130;48.740;9.132;2023-06-22T09:17:36;28.70;98.50
8178;DHT22;4130;48.740;9.132;2023-06-22T09:20:04;29.10;98.60
8178;DHT22;4130;48.740;9.132;2023-06-22T09:22:31;29.60;98.10
8178;DHT22;4130;48.740;9.132;2023-06-22T09:24:58;30.00;99.00
8178;DHT22;4130;48.740;9.132;2023-06-22T09:27:26;30.60;98.10
8178;DHT22;4130;48.740;9.132;2023-06-22T09:29:53;31.20;97.50
8178;DHT22;4130;48.740;9.132;2023-06-22T09:32:21;31.30;96.80
8178;DHT22;4130;48.740;9.132;2023-06-22T09:34:47;31.80;96.30
8178;DHT22;4130;48.740;9.132;2023-06-22T09:37:14;32.10;96.70
8178;DHT22;4130;48.740;9.132;2023-06-22T09:39:41;32.40;96.30
8178;DHT22;4130;48.740;9.132;2023-06-22T09:42:08;32.60;95.20
8178;DHT22;4130;48.740;9.132;2023-06-22T09:44:34;32.50;94.10
8178;DHT22;4130;48.740;9.132;2023-06-22T09:47:02;32.20;94.90
8178;DHT22;4130;48.740;9.132;2023-06-22T09:49:30;32.00;95.10
8178;DHT22;4130;48.740;9.132;2023-06-22T09:51:57;32.10;95.00
8178;DHT22;4130;48.740;9.132;2023-06-22T09:54:24;32.30;94.90
8178;DHT22;4130;48.740;9.132;2023-06-22T09:56:51;32.30;94.80
8178;DHT22;4130;48.740;9.132;2023-06-22T09:59:17;32.00;94.20
8178;DHT22;4130;48.740;9.132;2023-06-22T10:01:44;31.90;94.80
8178;DHT22;4130;48.740;9.132;2023-06-22T10:04:11;32.20;94.50
8178;DHT22;4130;48.740;9.132;2023-06-22T10:06:39;32.30;94.80
8178;DHT22;4130;48.740;9.132;2023-06-22T10:09:06;32.00;94.30
8178;DHT22;4130;48.740;9.132;2023-06-22T10:11:33;31.30;94.40
8178;DHT22;4130;48.740;9.132;2023-06-22T10:14:00;31.50;94.50
8178;DHT22;4130;48.740;9.132;2023-06-22T10:16:31;31.30;94.30
8178;DHT22;4130;48.740;9.132;2023-06-22T10:18:58;31.10;95.20
8178;DHT22;4130;48.740;9.132;2023-06-22T10:21:24;31.30;95.30
8178;DHT22;4130;48.740;9.132;2023-06-22T10:23:53;31.50;94.50
8178;DHT22;4130;48.740;9.132;2023-06-22T10:26:20;31.70;94.60
8178;DHT22;4130;48.740;9.132;2023-06-22T10:28:47;31.70;94.00
8178;DHT22;4130;48.740;9.132;2023-06-22T10:31:14;31.70;94.00
8178;DHT22;4130;48.740;9.132;2023-06-22T10:33:42;31.80;95.30
8178;DHT22;4130;48.740;9.132;2023-06-22T10:36:09;31.90;94.10
8178;DHT22;4130;48.740;9.132;2023-06-22T10:38:36;32.10;94.10
8178;DHT22;4130;48.740;9.132;2023-06-22T10:41:04;32.40;94.50
8178;DHT22;4130;48.740;9.132;2023-06-22T10:43:31;32.70;93.90
8178;DHT22;4130;48.740;9.132;2023-06-22T10:45:58;32.80;93.10
8178;DHT22;4130;48.740;9.132;2023-06-22T10:48:25;32.90;94.00
8178;DHT22;4130;48.740;9.132;2023-06-22T10:50:51;33.20;93.60
8178;DHT22;4130;48.740;9.132;2023-06-22T10:53:20;33.40;93.00
8178;DHT22;4130;48.740;9.132;2023-06-22T10:55:46;33.30;92.30
8178;DHT22;4130;48.740;9.132;2023-06-22T10:58:15;33.10;92.70
8178;DHT22;4130;48.740;9.132;2023-06-22T11:00:41;33.20;92.50
8178;DHT22;4130;48.740;9.132;2023-06-22T11:03:08;32.80;93.00
8178;DHT22;4130;48.740;9.132;2023-06-22T11:05:35;32.80;92.70
8178;DHT22;4130;48.740;9.132;2023-06-22T11:08:01;32.80;93.40
8178;DHT22;4130;48.740;9.132;2023-06-22T11:10:28;32.60;92.50
8178;DHT22;4130;48.740;9.132;2023-06-22T11:12:55;32.40;93.00
8178;DHT22;4130;48.740;9.132;2023-06-22T11:15:24;32.30;92.80
8178;DHT22;4130;48.740;9.132;2023-06-22T11:17:51;32.20;93.20
8178;DHT22;4130;48.740;9.132;2023-06-22T11:20:18;32.20;93.40
8178;DHT22;4130;48.740;9.132;2023-06-22T11:22:45;32.00;93.20
8178;DHT22;4130;48.740;9.132;2023-06-22T11:25:12;31.80;92.90
8178;DHT22;4130;48.740;9.132;2023-06-22T11:27:39;31.80;93.30
8178;DHT22;4130;48.740;9.132;2023-06-22T11:30:07;31.60;93.30
8178;DHT22;4130;48.740;9.132;2023-06-22T11:32:35;31.30;93.30
8178;DHT22;4130;48.740;9.132;2023-06-22T11:35:04;31.20;93.00
8178;DHT22;4130;48.740;9.132;2023-06-22T11:37:30;31.40;93.60
8178;DHT22;4130;48.740;9.132;2023-06-22T11:39:57;31.70;93.70
8178;DHT22;4130;48.740;9.132;2023-06-22T11:42:24;31.90;93.50
8178;DHT22;4130;48.740;9.132;2023-06-22T11:44:52;32.10;92.90
8178;DHT22;4130;48.740;9.132;2023-06-22T11:47:19;32.50;92.80
8178;DHT22;4130;48.740;9.132;2023-06-22T11:49:47;32.80;92.90
8178;DHT22;4130;48.740;9.132;2023-06-22T11:52:13;33.00;92.60
8178;DHT22;4130;48.740;9.132;2023-06-22T11:54:40;33.00;92.10
8178;DHT22;4130;48.740;9.132;2023-06-22T11:57:07;33.00;92.50
8178;DHT22;4130;48.740;9.132;2023-06-22T11:59:34;32.90;92.60
8178;DHT22;4130;48.740;9.132;2023-06-22T12:02:01;32.70;92.30
8178;DHT22;4130;48.740;9.132;2023-06-22T12:04:29;32.40;92.10
8178;DHT22;4130;48.740;9.132;2023-06-22T12:06:57;32.40;92.90
8178;DHT22;4130;48.740;9.132;2023-06-22T12:09:24;32.20;92.20
8178;DHT22;4130;48.740;9.132;2023-06-22T12:11:50;32.20;93.30
8178;DHT22;4130;48.740;9.132;2023-06-22T12:14:17;32.00;93.20
8178;DHT22;4130;48.740;9.132;2023-06-22T12:16:44;31.90;93.20
8178;DHT22;4130;48.740;9.132;2023-06-22T12:19:11;31.90;93.30
8178;DHT22;4130;48.740;9.132;2023-06-22T12:21:38;31.90;93.40
8178;DHT22;4130;48.740;9.132;2023-06-22T12:24:07;31.90;93.10
8178;DHT22;4130;48.740;9.132;2023-06-22T12:26:34;31.90;93.10
8178;DHT22;4130;48.740;9.132;2023-06-22T12:29:01;32.00;93.90
8178;DHT22;4130;48.740;9.132;2023-06-22T12:31:27;32.10;93.70
8178;DHT22;4130;48.740;9.132;2023-06-22T12:33:54;31.90;93.50
8178;DHT22;4130;48.740;9.132;2023-06-22T12:36:21;31.80;93.40
8178;DHT22;4130;48.740;9.132;2023-06-22T12:38:47;31.50;92.90
8178;DHT22;4130;48.740;9.132;2023-06-22T12:41:15;31.40;93.40
8178;DHT22;4130;48.740;9.132;2023-06-22T12:43:42;31.30;94.00
8178;DHT22;4130;48.740;9.132;2023-06-22T12:46:09;31.30;93.30
8178;DHT22;4130;48.740;9.132;2023-06-22T12:48:36;31.10;93.40
8178;DHT22;4130;48.740;9.132;2023-06-22T12:51:07;31.10;93.70
8178;DHT22;4130;48.740;9.132;2023-06-22T12:53:34;31.10;94.00
8178;DHT22;4130;48.740;9.132;2023-06-22T12:56:01;31.10;94.00
8178;DHT22;4130;48.740;9.132;2023-06-22T12:58:29;31.10;94.00
8178;DHT22;4130;48.740;9.132;2023-06-22T13:00:56;30.90;94.20
8178;DHT22;4130;48.740;9.132;2023-06-22T13:03:23;30.70;94.40
8178;DHT22;4130;48.740;9.132;2023-06-22T13:05:52;30.60;94.10
8178;DHT22;4130;48.740;9.132;2023-06-22T13:08:18;30.50;94.40
8178;DHT22;4130;48.740;9.132;2023-06-22T13:10:45;30.40;94.50
8178;DHT22;4130;48.740;9.132;2023-06-22T13:13:12;30.40;94.60
8178;DHT22;4130;48.740;9.132;2023-06-22T13:15:49;30.30;94.70
8178;DHT22;4130;48.740;9.132;2023-06-22T13:18:16;30.30;95.20
8178;DHT22;4130;48.740;9.132;2023-06-22T13:20:43;30.20;94.90
8178;DHT22;4130;48.740;9.132;2023-06-22T13:23:11;30.30;94.80
8178;DHT22;4130;48.740;9.132;2023-06-22T13:25:38;30.40;94.70
8178;DHT22;4130;48.740;9.132;2023-06-22T13:28:05;30.70;93.60
8178;DHT22;4130;48.740;9.132;2023-06-22T13:30:32;30.50;93.70
8178;DHT22;4130;48.740;9.132;2023-06-22T13:33:00;30.50;93.50
8178;DHT22;4130;48.740;9.132;2023-06-22T13:35:27;30.50;93.50
8178;DHT22;4130;48.740;9.132;2023-06-22T13:37:53;30.70;93.60
8178;DHT22;4130;48.740;9.132;2023-06-22T13:40:20;30.70;93.10
8178;DHT22;4130;48.740;9.132;2023-06-22T13:42:47;30.70;93.50
8178;DHT22;4130;48.740;9.132;2023-06-22T13:45:14;30.80;93.90
8178;DHT22;4130;48.740;9.132;2023-06-22T13:47:42;30.90;93.10
8178;DHT22;4130;48.740;9.132;2023-06-22T13:50:11;30.90;93.40
8178;DHT22;4130;48.740;9.132;2023-06-22T13:52:38;30.90;92.70
8178;DHT22;4130;48.740;9.132;2023-06-22T13:55:05;30.80;92.00
8178;DHT22;4130;48.740;9.132;2023-06-22T13:57:33;30.60;92.50
8178;DHT22;4130;48.740;9.132;2023-06-22T14:00:01;30.50;92.20
8178;DHT22;4130;48.740;9.132;2023-06-22T14:02:29;30.50;92.60
8178;DHT22;4130;48.740;9.132;2023-06-22T14:04:56;30.60;92.90
8178;DHT22;4130;48.740;9.132;2023-06-22T14:07:25;30.80;93.20
8178;DHT22;4130;48.740;9.132;2023-06-22T14:09:51;31.10;92.70
8178;DHT22;4130;48.740;9.132;2023-06-22T14:12:18;31.40;92.70
8178;DHT22;4130;48.740;9.132;2023-06-22T14:14:45;31.70;91.50
8178;DHT22;4130;48.740;9.132;2023-06-22T14:17:12;31.90;91.40
8178;DHT22;4130;48.740;9.132;2023-06-22T14:19:38;32.10;90.70
8178;DHT22;4130;48.740;9.132;2023-06-22T14:22:05;32.20;90.60
8178;DHT22;4130;48.740;9.132;2023-06-22T14:24:34;32.20;91.00
8178;DHT22;4130;48.740;9.132;2023-06-22T14:27:00;32.00;90.60
8178;DHT22;4130;48.740;9.132;2023-06-22T14:29:28;31.90;88.70
8178;DHT22;4130;48.740;9.132;2023-06-22T14:31:55;31.70;88.20
8178;DHT22;4130;48.740;9.132;2023-06-22T14:34:23;31.60;86.40
8178;DHT22;4130;48.740;9.132;2023-06-22T14:36:50;31.60;86.50
8178;DHT22;4130;48.740;9.132;2023-06-22T14:39:16;31.60;85.40
8178;DHT22;4130;48.740;9.132;2023-06-22T14:41:45;31.70;86.50
8178;DHT22;4130;48.740;9.132;2023-06-22T14:44:11;31.90;85.90
8178;DHT22;4130;48.740;9.132;2023-06-22T14:46:38;32.00;83.90
8178;DHT22;4130;48.740;9.132;2023-06-22T14:49:05;31.90;83.50
8178;DHT22;4130;48.740;9.132;2023-06-22T14:51:32;31.80;83.70
8178;DHT22;4130;48.740;9.132;2023-06-22T14:53:58;31.90;84.70
8178;DHT22;4130;48.740;9.132;2023-06-22T14:56:25;31.90;82.00
8178;DHT22;4130;48.740;9.132;2023-06-22T14:58:53;31.70;78.90
8178;DHT22;4130;48.740;9.132;2023-06-22T15:01:20;31.60;78.90
8178;DHT22;4130;48.740;9.132;2023-06-22T15:03:47;31.50;78.80
8178;DHT22;4130;48.740;9.132;2023-06-22T15:06:14;31.30;79.50
8178;DHT22;4130;48.740;9.132;2023-06-22T15:08:41;31.20;78.20
8178;DHT22;4130;48.740;9.132;2023-06-22T15:11:08;31.20;78.00
8178;DHT22;4130;48.740;9.132;2023-06-22T15:13:38;31.20;78.80
8178;DHT22;4130;48.740;9.132;2023-06-22T15:16:07;31.20;77.80
8178;DHT22;4130;48.740;9.132;2023-06-22T15:18:35;31.30;78.80
8178;DHT22;4130;48.740;9.132;2023-06-22T15:21:02;31.30;77.80
8178;DHT22;4130;48.740;9.132;2023-06-22T15:23:30;31.40;77.20
8178;DHT22;4130;48.740;9.132;2023-06-22T15:25:58;31.50;78.40
8178;DHT22;4130;48.740;9.132;2023-06-22T15:28:25;31.40;76.90
8178;DHT22;4130;48.740;9.132;2023-06-22T15:30:53;31.30;76.70
8178;DHT22;4130;48.740;9.132;2023-06-22T15:33:21;31.10;76.30
8178;DHT22;4130;48.740;9.132;2023-06-22T15:35:48;31.00;76.40
8178;DHT22;4130;48.740;9.132;2023-06-22T15:38:15;30.90;77.10
8178;DHT22;4130;48.740;9.132;2023-06-22T15:40:42;30.90;76.70
8178;DHT22;4130;48.740;9.132;2023-06-22T15:43:10;30.90;76.90
8178;DHT22;4130;48.740;9.132;2023-06-22T15:45:37;31.00;77.20
8178;DHT22;4130;48.740;9.132;2023-06-22T15:48:04;30.90;77.30
8178;DHT22;4130;48.740;9.132;2023-06-22T15:50:32;31.10;78.00
8178;DHT22;4130;48.740;9.132;2023-06-22T15:52:59;31.20;77.50
8178;DHT22;4130;48.740;9.132;2023-06-22T15:55:25;31.10;77.50
8178;DHT22;4130;48.740;9.132;2023-06-22T15:57:52;31.00;77.70
8178;DHT22;4130;48.740;9.132;2023-06-22T16:00:19;30.90;77.90
8178;DHT22;4130;48.740;9.132;2023-06-22T16:02:47;30.70;78.10